Hauptseite
METAR-TAF:

METAR-TAF

Flughäfen :

Flughafen Chongqing-Jiangbei

Chongqing, China

Breite: 29-31N, Länge: 106-29E, Höhe: 351 m

Beobachtung

Neuester Wetterbericht von vor 1 Stunde und 59 Minuten, um 20:00 UTC
Wind 2 kt aus unterschiedlichen Richtungen
Temperatur 29°C
Luftfeuchtigkeit 70%
Luftdruck 1004 hPa
Sichtweite 10 km oder mehr
keine Wolken unter 1500 m und keine Kumulonimbus oder Gewitterwolken

METAR: ZUCK 162000Z VRB01MPS CAVOK 29/23 Q1004 NOSIG

Zeit: 05:59 (21:59 UTC)

Prognose

Neuester Wetterbericht von vor 6 Stunden und 57 Minuten, um 15:02 UTC
Gültige Prognose vom 16 um 18 UTC bis 17 um 18 UTC
Wind 6 kt aus Nord/Nordost
Sichtweite: 6000 m
Aufgelockert bewölkt in der Höhe von 4000 ft

TAF: ZUCK 161502Z 1618/1718 03003MPS 6000 SCT040 TX38/1708Z TN29/1621Z

Wetterbeobachtungen und Prognosen von mehr als 4000 Flughäfen (METAR und TAF Bericht).

Die verfügbaren Stationen werden durch gelbe und rote Markierungen auf der Karte dargestellt.

Führen Sie die Maus auf sie, um den Namen der Station zu sehen.

Darauf klicken, um die Beobachtung von Wetterbeobachtungen und Prognosen zu sehen.

Um die Karte zu ändern : klicken Sie auf den grünen Tasten mit einem schwarzen Kreuz Zum Vergrößern, auf den grünen Button mit einem Gedankenstrich zu verkleinern, oder auf die grünen Pfeile für benachbarte Karten.


METAR-TAF: